sensor_id;sensor_type;location;lat;lon;timestamp;pressure;altitude;pressure_sealevel;temperature;humidity
65872;BME280;52653;50.080;21.992;2023-03-22T00:01:53;99139.84;;;5.70;90.47
65872;BME280;52653;50.080;21.992;2023-03-22T00:04:46;99136.45;;;5.78;90.30
65872;BME280;52653;50.080;21.992;2023-03-22T00:07:40;99136.23;;;5.90;90.44
65872;BME280;52653;50.080;21.992;2023-03-22T00:10:34;99127.29;;;6.00;90.10
65872;BME280;52653;50.080;21.992;2023-03-22T00:13:28;99130.09;;;6.01;89.40
65872;BME280;52653;50.080;21.992;2023-03-22T00:16:21;99128.69;;;6.00;88.98
65872;BME280;52653;50.080;21.992;2023-03-22T00:19:15;99120.26;;;5.93;88.31
65872;BME280;52653;50.080;21.992;2023-03-22T00:22:08;99119.70;;;5.90;88.63
65872;BME280;52653;50.080;21.992;2023-03-22T00:25:01;99115.13;;;5.86;88.44
65872;BME280;52653;50.080;21.992;2023-03-22T00:27:54;99109.15;;;5.81;88.22
65872;BME280;52653;50.080;21.992;2023-03-22T00:30:53;99111.36;;;5.75;88.04
65872;BME280;52653;50.080;21.992;2023-03-22T00:33:47;99108.64;;;5.65;87.54
65872;BME280;52653;50.080;21.992;2023-03-22T00:36:19;99105.91;;;5.54;87.57
65872;BME280;52653;50.080;21.992;2023-03-22T00:39:05;99107.05;;;5.47;87.84
65872;BME280;52653;50.080;21.992;2023-03-22T00:41:58;99106.61;;;5.38;87.90
65872;BME280;52653;50.080;21.992;2023-03-22T00:44:51;99106.67;;;5.28;87.77
65872;BME280;52653;50.080;21.992;2023-03-22T00:47:44;99107.58;;;5.16;87.44
65872;BME280;52653;50.080;21.992;2023-03-22T00:50:37;99109.27;;;4.99;87.13
65872;BME280;52653;50.080;21.992;2023-03-22T00:53:32;99105.80;;;4.86;87.27
65872;BME280;52653;50.080;21.992;2023-03-22T00:56:25;99107.40;;;4.77;87.70
65872;BME280;52653;50.080;21.992;2023-03-22T00:59:25;99109.38;;;4.68;87.50
65872;BME280;52653;50.080;21.992;2023-03-22T01:02:19;99107.21;;;4.62;87.70
65872;BME280;52653;50.080;21.992;2023-03-22T01:05:33;99106.84;;;4.60;87.80
65872;BME280;52653;50.080;21.992;2023-03-22T01:08:26;99105.08;;;4.58;87.91
65872;BME280;52653;50.080;21.992;2023-03-22T01:11:25;99103.42;;;4.54;87.58
65872;BME280;52653;50.080;21.992;2023-03-22T01:14:18;99103.04;;;4.51;87.54
65872;BME280;52653;50.080;21.992;2023-03-22T01:17:11;99102.08;;;4.45;87.22
65872;BME280;52653;50.080;21.992;2023-03-22T01:19:58;99104.02;;;4.35;87.13
65872;BME280;52653;50.080;21.992;2023-03-22T01:22:51;99101.13;;;4.29;87.59
65872;BME280;52653;50.080;21.992;2023-03-22T01:25:44;99098.45;;;4.24;87.46
65872;BME280;52653;50.080;21.992;2023-03-22T01:28:37;99097.89;;;4.10;87.16
65872;BME280;52653;50.080;21.992;2023-03-22T01:31:31;99094.76;;;3.98;87.45
65872;BME280;52653;50.080;21.992;2023-03-22T01:34:24;99089.28;;;3.94;87.95
65872;BME280;52653;50.080;21.992;2023-03-22T01:37:18;99087.92;;;3.94;88.27
65872;BME280;52653;50.080;21.992;2023-03-22T01:40:15;99089.41;;;3.90;87.98
65872;BME280;52653;50.080;21.992;2023-03-22T01:43:13;99082.00;;;3.83;87.86
65872;BME280;52653;50.080;21.992;2023-03-22T01:46:08;99082.05;;;3.76;88.24
65872;BME280;52653;50.080;21.992;2023-03-22T01:49:02;99082.52;;;3.72;88.53
65872;BME280;52653;50.080;21.992;2023-03-22T01:51:59;99081.61;;;3.60;88.04
65872;BME280;52653;50.080;21.992;2023-03-22T01:54:59;99079.38;;;3.52;88.29
65872;BME280;52653;50.080;21.992;2023-03-22T01:57:56;99082.86;;;3.44;88.34
65872;BME280;52653;50.080;21.992;2023-03-22T02:00:51;99078.77;;;3.38;88.45
65872;BME280;52653;50.080;21.992;2023-03-22T02:03:56;99078.94;;;3.38;88.92
65872;BME280;52653;50.080;21.992;2023-03-22T02:06:53;99080.14;;;3.37;88.87
65872;BME280;52653;50.080;21.992;2023-03-22T02:09:47;99075.23;;;3.33;88.52
65872;BME280;52653;50.080;21.992;2023-03-22T02:12:37;99073.81;;;3.32;88.75
65872;BME280;52653;50.080;21.992;2023-03-22T02:15:34;99071.40;;;3.32;89.25
65872;BME280;52653;50.080;21.992;2023-03-22T02:18:54;99072.95;;;3.32;88.97
65872;BME280;52653;50.080;21.992;2023-03-22T02:22:14;99071.77;;;3.25;88.49
65872;BME280;52653;50.080;21.992;2023-03-22T02:28:41;99074.45;;;3.12;88.46
65872;BME280;52653;50.080;21.992;2023-03-22T02:35:12;99070.19;;;3.06;88.89
65872;BME280;52653;50.080;21.992;2023-03-22T02:38:23;99071.80;;;3.09;89.31
65872;BME280;52653;50.080;21.992;2023-03-22T02:41:12;99072.39;;;3.13;89.07
65872;BME280;52653;50.080;21.992;2023-03-22T02:44:11;99067.43;;;3.17;89.29
65872;BME280;52653;50.080;21.992;2023-03-22T02:47:16;99066.15;;;3.21;88.95
65872;BME280;52653;50.080;21.992;2023-03-22T02:50:09;99068.14;;;3.26;89.12
65872;BME280;52653;50.080;21.992;2023-03-22T02:53:13;99065.44;;;3.39;90.10
65872;BME280;52653;50.080;21.992;2023-03-22T02:56:03;99061.80;;;3.47;89.80
65872;BME280;52653;50.080;21.992;2023-03-22T02:58:39;99051.27;;;3.51;89.31
65872;BME280;52653;50.080;21.992;2023-03-22T03:01:39;99055.05;;;3.59;89.69
65872;BME280;52653;50.080;21.992;2023-03-22T03:04:36;99055.62;;;3.62;89.25
65872;BME280;52653;50.080;21.992;2023-03-22T03:07:23;99057.36;;;3.63;88.94
65872;BME280;52653;50.080;21.992;2023-03-22T03:10:21;99062.32;;;3.68;89.63
65872;BME280;52653;50.080;21.992;2023-03-22T03:13:16;99068.66;;;3.73;89.66
65872;BME280;52653;50.080;21.992;2023-03-22T03:16:04;99069.19;;;3.84;90.65
65872;BME280;52653;50.080;21.992;2023-03-22T03:18:55;99068.94;;;3.91;90.47
65872;BME280;52653;50.080;21.992;2023-03-22T03:21:56;99072.77;;;3.92;90.16
65872;BME280;52653;50.080;21.992;2023-03-22T03:24:58;99077.09;;;3.90;90.05
65872;BME280;52653;50.080;21.992;2023-03-22T03:27:59;99080.38;;;3.90;90.14
65872;BME280;52653;50.080;21.992;2023-03-22T03:30:59;99084.38;;;3.91;90.36
65872;BME280;52653;50.080;21.992;2023-03-22T03:34:01;99085.53;;;3.96;90.62
65872;BME280;52653;50.080;21.992;2023-03-22T03:36:49;99084.98;;;4.05;90.79
65872;BME280;52653;50.080;21.992;2023-03-22T03:39:42;99088.91;;;4.12;90.61
65872;BME280;52653;50.080;21.992;2023-03-22T03:42:34;99082.20;;;4.16;90.34
65872;BME280;52653;50.080;21.992;2023-03-22T03:45:30;99085.67;;;4.17;90.22
65872;BME280;52653;50.080;21.992;2023-03-22T03:48:25;99089.09;;;4.25;91.16
65872;BME280;52653;50.080;21.992;2023-03-22T03:51:19;99082.23;;;4.41;91.77
65872;BME280;52653;50.080;21.992;2023-03-22T03:54:12;99077.52;;;4.51;91.44
65872;BME280;52653;50.080;21.992;2023-03-22T03:57:05;99082.34;;;4.60;91.10
65872;BME280;52653;50.080;21.992;2023-03-22T03:59:59;99087.22;;;4.60;90.62
65872;BME280;52653;50.080;21.992;2023-03-22T04:02:55;99087.69;;;4.70;90.90
65872;BME280;52653;50.080;21.992;2023-03-22T04:05:52;99084.43;;;4.73;90.37
65872;BME280;52653;50.080;21.992;2023-03-22T04:08:46;99082.46;;;4.83;90.78
65872;BME280;52653;50.080;21.992;2023-03-22T04:11:44;99082.89;;;4.89;90.51
65872;BME280;52653;50.080;21.992;2023-03-22T04:14:38;99084.46;;;4.90;90.14
65872;BME280;52653;50.080;21.992;2023-03-22T04:17:32;99082.52;;;4.86;90.00
65872;BME280;52653;50.080;21.992;2023-03-22T04:20:26;99082.41;;;4.79;89.44
65872;BME280;52653;50.080;21.992;2023-03-22T04:23:20;99079.14;;;4.68;89.21
65872;BME280;52653;50.080;21.992;2023-03-22T04:26:08;99080.31;;;4.65;89.42
65872;BME280;52653;50.080;21.992;2023-03-22T04:29:01;99078.64;;;4.69;89.53
65872;BME280;52653;50.080;21.992;2023-03-22T04:31:56;99080.63;;;4.75;89.60
65872;BME280;52653;50.080;21.992;2023-03-22T04:34:49;99080.88;;;4.81;89.51
65872;BME280;52653;50.080;21.992;2023-03-22T04:37:42;99081.14;;;4.87;89.46
65872;BME280;52653;50.080;21.992;2023-03-22T04:40:36;99080.31;;;4.91;89.08
65872;BME280;52653;50.080;21.992;2023-03-22T04:43:29;99079.66;;;4.95;89.19
65872;BME280;52653;50.080;21.992;2023-03-22T04:46:25;99076.64;;;5.04;89.37
65872;BME280;52653;50.080;21.992;2023-03-22T04:49:18;99086.11;;;5.10;89.52
65872;BME280;52653;50.080;21.992;2023-03-22T04:52:11;99085.77;;;5.10;89.53
65872;BME280;52653;50.080;21.992;2023-03-22T04:55:05;99083.95;;;5.05;89.32
65872;BME280;52653;50.080;21.992;2023-03-22T04:57:58;99085.63;;;4.98;89.43
65872;BME280;52653;50.080;21.992;2023-03-22T05:00:52;99081.20;;;4.93;89.53
65872;BME280;52653;50.080;21.992;2023-03-22T05:03:46;99083.64;;;4.93;89.62
65872;BME280;52653;50.080;21.992;2023-03-22T05:06:39;99081.79;;;4.98;90.03
65872;BME280;52653;50.080;21.992;2023-03-22T05:09:32;99077.88;;;5.06;90.27
65872;BME280;52653;50.080;21.992;2023-03-22T05:12:25;99075.05;;;5.16;90.45
65872;BME280;52653;50.080;21.992;2023-03-22T05:15:19;99073.60;;;5.25;90.41
65872;BME280;52653;50.080;21.992;2023-03-22T05:18:12;99073.89;;;5.36;90.48
65872;BME280;52653;50.080;21.992;2023-03-22T05:21:08;99076.23;;;5.44;89.97
65872;BME280;52653;50.080;21.992;2023-03-22T05:24:04;99071.60;;;5.49;89.85
65872;BME280;52653;50.080;21.992;2023-03-22T05:26:58;99072.27;;;5.64;90.29
65872;BME280;52653;50.080;21.992;2023-03-22T05:29:54;99076.90;;;5.75;90.06
65872;BME280;52653;50.080;21.992;2023-03-22T05:32:34;99078.89;;;5.84;89.76
65872;BME280;52653;50.080;21.992;2023-03-22T05:35:18;99082.33;;;5.95;89.66
65872;BME280;52653;50.080;21.992;2023-03-22T05:38:11;99085.72;;;6.04;89.56
65872;BME280;52653;50.080;21.992;2023-03-22T05:40:51;99090.36;;;6.18;89.95
65872;BME280;52653;50.080;21.992;2023-03-22T05:43:25;99092.70;;;6.27;89.86
65872;BME280;52653;50.080;21.992;2023-03-22T05:46:17;99091.14;;;6.30;89.25
65872;BME280;52653;50.080;21.992;2023-03-22T05:49:13;99094.70;;;6.38;89.94
65872;BME280;52653;50.080;21.992;2023-03-22T05:51:57;99095.07;;;6.43;89.74
65872;BME280;52653;50.080;21.992;2023-03-22T05:54:50;99092.10;;;6.42;89.24
65872;BME280;52653;50.080;21.992;2023-03-22T05:57:44;99088.27;;;6.46;89.40
65872;BME280;52653;50.080;21.992;2023-03-22T06:00:32;99090.44;;;6.53;89.47
65872;BME280;52653;50.080;21.992;2023-03-22T06:03:44;99096.73;;;6.58;89.24
65872;BME280;52653;50.080;21.992;2023-03-22T06:06:37;99101.34;;;6.67;89.63
65872;BME280;52653;50.080;21.992;2023-03-22T06:09:30;99102.27;;;6.77;89.48
65872;BME280;52653;50.080;21.992;2023-03-22T06:12:23;99102.80;;;6.82;88.80
65872;BME280;52653;50.080;21.992;2023-03-22T06:15:25;99105.47;;;6.88;88.50
65872;BME280;52653;50.080;21.992;2023-03-22T06:18:26;99107.75;;;6.93;88.38
65872;BME280;52653;50.080;21.992;2023-03-22T06:21:20;99109.37;;;7.00;88.14
65872;BME280;52653;50.080;21.992;2023-03-22T06:24:14;99108.86;;;7.05;87.90
65872;BME280;52653;50.080;21.992;2023-03-22T06:27:17;99108.90;;;7.15;88.00
65872;BME280;52653;50.080;21.992;2023-03-22T06:29:55;99107.34;;;7.18;86.95
65872;BME280;52653;50.080;21.992;2023-03-22T06:33:09;99113.95;;;7.12;86.45
65872;BME280;52653;50.080;21.992;2023-03-22T06:35:47;99115.19;;;7.18;86.79
65872;BME280;52653;50.080;21.992;2023-03-22T06:38:38;99114.67;;;7.21;86.15
65872;BME280;52653;50.080;21.992;2023-03-22T06:41:33;99119.41;;;7.25;86.41
65872;BME280;52653;50.080;21.992;2023-03-22T06:44:19;99123.45;;;7.33;86.43
65872;BME280;52653;50.080;21.992;2023-03-22T06:46:53;99124.54;;;7.42;85.56
65872;BME280;52653;50.080;21.992;2023-03-22T06:49:45;99126.67;;;7.51;85.65
65872;BME280;52653;50.080;21.992;2023-03-22T06:52:38;99128.77;;;7.57;85.16
65872;BME280;52653;50.080;21.992;2023-03-22T06:55:31;99131.56;;;7.59;84.81
65872;BME280;52653;50.080;21.992;2023-03-22T06:58:27;99131.76;;;7.61;84.93
65872;BME280;52653;50.080;21.992;2023-03-22T07:01:20;99126.19;;;7.65;84.35
65872;BME280;52653;50.080;21.992;2023-03-22T07:03:59;99133.34;;;7.72;84.43
65872;BME280;52653;50.080;21.992;2023-03-22T07:06:52;99131.10;;;7.81;84.48
65872;BME280;52653;50.080;21.992;2023-03-22T07:09:46;99130.25;;;7.91;84.25
65872;BME280;52653;50.080;21.992;2023-03-22T07:12:39;99128.70;;;8.00;84.16
65872;BME280;52653;50.080;21.992;2023-03-22T07:15:33;99127.30;;;8.07;83.99
65872;BME280;52653;50.080;21.992;2023-03-22T07:18:26;99129.23;;;8.13;83.64
65872;BME280;52653;50.080;21.992;2023-03-22T07:21:20;99127.48;;;8.14;82.95
65872;BME280;52653;50.080;21.992;2023-03-22T07:24:13;99126.77;;;8.21;82.98
65872;BME280;52653;50.080;21.992;2023-03-22T07:27:06;99126.09;;;8.30;82.39
65872;BME280;52653;50.080;21.992;2023-03-22T07:29:59;99129.76;;;8.32;81.87
65872;BME280;52653;50.080;21.992;2023-03-22T07:32:52;99124.73;;;8.39;82.08
65872;BME280;52653;50.080;21.992;2023-03-22T07:35:40;99123.49;;;8.46;81.79
65872;BME280;52653;50.080;21.992;2023-03-22T07:38:24;99118.58;;;8.59;82.33
65872;BME280;52653;50.080;21.992;2023-03-22T07:41:17;99121.19;;;8.71;82.03
65872;BME280;52653;50.080;21.992;2023-03-22T07:44:11;99122.40;;;8.77;81.11
65872;BME280;52653;50.080;21.992;2023-03-22T07:47:12;99120.28;;;8.86;80.42
65872;BME280;52653;50.080;21.992;2023-03-22T07:50:05;99118.54;;;8.89;80.31
65872;BME280;52653;50.080;21.992;2023-03-22T07:52:58;99120.78;;;8.97;80.52
65872;BME280;52653;50.080;21.992;2023-03-22T07:55:52;99117.77;;;9.09;80.97
65872;BME280;52653;50.080;21.992;2023-03-22T07:58:40;99114.58;;;9.23;80.28
65872;BME280;52653;50.080;21.992;2023-03-22T08:01:25;99116.46;;;9.33;79.57
65872;BME280;52653;50.080;21.992;2023-03-22T08:04:33;99113.45;;;9.43;79.22
65872;BME280;52653;50.080;21.992;2023-03-22T08:07:38;99114.23;;;9.61;79.19
65872;BME280;52653;50.080;21.992;2023-03-22T08:10:31;99111.14;;;9.80;78.93
65872;BME280;52653;50.080;21.992;2023-03-22T08:13:04;99116.09;;;10.00;78.85
65872;BME280;52653;50.080;21.992;2023-03-22T08:15:43;99119.98;;;10.20;78.47
65872;BME280;52653;50.080;21.992;2023-03-22T08:18:27;99121.59;;;10.41;77.83
65872;BME280;52653;50.080;21.992;2023-03-22T08:21:11;99121.96;;;10.59;77.08
65872;BME280;52653;50.080;21.992;2023-03-22T08:24:04;99120.50;;;10.83;76.75
65872;BME280;52653;50.080;21.992;2023-03-22T08:27:03;99117.94;;;11.09;75.85
65872;BME280;52653;50.080;21.992;2023-03-22T08:29:55;99118.66;;;11.22;74.50
65872;BME280;52653;50.080;21.992;2023-03-22T08:32:49;99118.23;;;11.30;74.06
65872;BME280;52653;50.080;21.992;2023-03-22T08:38:19;99113.35;;;11.54;73.92
65872;BME280;52653;50.080;21.992;2023-03-22T08:41:12;99117.29;;;11.61;73.47
65872;BME280;52653;50.080;21.992;2023-03-22T08:43:55;99117.47;;;11.61;72.08
65872;BME280;52653;50.080;21.992;2023-03-22T08:46:48;99111.36;;;11.59;72.43
65872;BME280;52653;50.080;21.992;2023-03-22T08:49:21;99112.23;;;11.59;71.94
65872;BME280;52653;50.080;21.992;2023-03-22T08:52:11;99111.61;;;11.52;71.91
65872;BME280;52653;50.080;21.992;2023-03-22T08:55:13;99110.73;;;11.51;72.06
65872;BME280;52653;50.080;21.992;2023-03-22T08:58:06;99110.29;;;11.59;72.02
65872;BME280;52653;50.080;21.992;2023-03-22T09:01:01;99108.65;;;11.63;70.41
65872;BME280;52653;50.080;21.992;2023-03-22T09:03:55;99110.14;;;11.58;70.79
65872;BME280;52653;50.080;21.992;2023-03-22T09:06:48;99103.33;;;11.68;71.54
65872;BME280;52653;50.080;21.992;2023-03-22T09:09:41;99099.95;;;11.84;71.85
65872;BME280;52653;50.080;21.992;2023-03-22T09:12:25;99097.67;;;12.07;71.77
65872;BME280;52653;50.080;21.992;2023-03-22T09:15:00;99096.80;;;12.17;70.20
65872;BME280;52653;50.080;21.992;2023-03-22T09:17:37;99096.55;;;12.12;69.59
65872;BME280;52653;50.080;21.992;2023-03-22T09:20:30;99096.71;;;12.01;69.34
65872;BME280;52653;50.080;21.992;2023-03-22T09:23:23;99095.15;;;11.89;70.08
65872;BME280;52653;50.080;21.992;2023-03-22T09:26:17;99096.84;;;11.82;69.71
65872;BME280;52653;50.080;21.992;2023-03-22T09:29:10;99088.58;;;11.83;69.98
65872;BME280;52653;50.080;21.992;2023-03-22T09:32:03;99086.30;;;11.78;70.02
65872;BME280;52653;50.080;21.992;2023-03-22T09:34:57;99081.21;;;11.81;70.06
65872;BME280;52653;50.080;21.992;2023-03-22T09:37:50;99080.53;;;11.91;70.85
65872;BME280;52653;50.080;21.992;2023-03-22T09:40:52;99081.32;;;11.97;70.94
65872;BME280;52653;50.080;21.992;2023-03-22T09:43:52;99077.32;;;11.95;70.73
65872;BME280;52653;50.080;21.992;2023-03-22T09:46:42;99075.44;;;12.02;71.16
65872;BME280;52653;50.080;21.992;2023-03-22T09:49:21;99069.61;;;12.03;70.59
65872;BME280;52653;50.080;21.992;2023-03-22T09:51:55;99067.31;;;12.04;70.45
65872;BME280;52653;50.080;21.992;2023-03-22T09:54:48;99062.16;;;12.08;70.72
65872;BME280;52653;50.080;21.992;2023-03-22T09:57:28;99056.66;;;12.12;70.58
65872;BME280;52653;50.080;21.992;2023-03-22T10:00:30;99050.86;;;12.21;70.75
65872;BME280;52653;50.080;21.992;2023-03-22T10:03:36;99051.03;;;12.32;70.35
65872;BME280;52653;50.080;21.992;2023-03-22T10:06:19;99051.57;;;12.42;69.05
65872;BME280;52653;50.080;21.992;2023-03-22T10:09:17;99043.45;;;12.53;68.99
65872;BME280;52653;50.080;21.992;2023-03-22T10:12:19;99037.73;;;12.56;67.89
65872;BME280;52653;50.080;21.992;2023-03-22T10:15:18;99033.69;;;12.58;67.27
65872;BME280;52653;50.080;21.992;2023-03-22T10:18:18;99026.12;;;12.66;67.46
65872;BME280;52653;50.080;21.992;2023-03-22T10:21:13;99021.26;;;12.73;66.68
65872;BME280;52653;50.080;21.992;2023-03-22T10:23:59;99018.66;;;12.71;65.68
65872;BME280;52653;50.080;21.992;2023-03-22T10:26:54;99013.91;;;12.70;64.66
65872;BME280;52653;50.080;21.992;2023-03-22T10:29:52;99010.66;;;12.75;64.67
65872;BME280;52653;50.080;21.992;2023-03-22T10:32:54;99008.73;;;12.91;64.65
65872;BME280;52653;50.080;21.992;2023-03-22T10:35:49;99001.26;;;13.04;64.09
65872;BME280;52653;50.080;21.992;2023-03-22T10:38:28;99002.05;;;13.16;63.50
65872;BME280;52653;50.080;21.992;2023-03-22T10:41:02;99003.73;;;13.21;60.97
65872;BME280;52653;50.080;21.992;2023-03-22T10:43:38;99003.59;;;13.28;60.71
65872;BME280;52653;50.080;21.992;2023-03-22T10:46:25;98999.48;;;13.30;60.29
65872;BME280;52653;50.080;21.992;2023-03-22T10:49:01;98995.55;;;13.40;61.10
65872;BME280;52653;50.080;21.992;2023-03-22T10:51:56;98991.28;;;13.58;60.71
65872;BME280;52653;50.080;21.992;2023-03-22T10:54:54;98988.16;;;13.71;58.24
65872;BME280;52653;50.080;21.992;2023-03-22T10:58:03;98985.16;;;13.78;56.78
65872;BME280;52653;50.080;21.992;2023-03-22T11:00:43;98978.73;;;13.89;55.48
65872;BME280;52653;50.080;21.992;2023-03-22T11:03:30;98971.48;;;13.97;55.20
65872;BME280;52653;50.080;21.992;2023-03-22T11:06:15;98962.88;;;14.08;55.52
65872;BME280;52653;50.080;21.992;2023-03-22T11:08:50;98965.11;;;14.25;56.02
65872;BME280;52653;50.080;21.992;2023-03-22T11:11:37;98968.64;;;14.45;55.99
65872;BME280;52653;50.080;21.992;2023-03-22T11:14:42;98969.70;;;14.58;53.86
65872;BME280;52653;50.080;21.992;2023-03-22T11:17:24;98970.71;;;14.66;52.38
65872;BME280;52653;50.080;21.992;2023-03-22T11:20:19;98961.12;;;14.75;50.70
65872;BME280;52653;50.080;21.992;2023-03-22T11:23:16;98957.37;;;14.77;49.75
65872;BME280;52653;50.080;21.992;2023-03-22T11:26:07;98953.60;;;14.91;50.97
65872;BME280;52653;50.080;21.992;2023-03-22T11:29:09;98950.88;;;15.11;49.69
65872;BME280;52653;50.080;21.992;2023-03-22T11:31:58;98949.60;;;15.35;50.50
65872;BME280;52653;50.080;21.992;2023-03-22T11:35:00;98941.05;;;15.60;49.67
65872;BME280;52653;50.080;21.992;2023-03-22T11:37:55;98944.81;;;15.75;47.65
65872;BME280;52653;50.080;21.992;2023-03-22T11:40:51;98943.30;;;15.78;48.53
65872;BME280;52653;50.080;21.992;2023-03-22T11:43:48;98947.02;;;15.83;48.99
65872;BME280;52653;50.080;21.992;2023-03-22T11:46:52;98947.52;;;15.89;48.38
65872;BME280;52653;50.080;21.992;2023-03-22T11:49:45;98941.13;;;15.96;46.80
65872;BME280;52653;50.080;21.992;2023-03-22T11:52:39;98935.20;;;16.03;47.10
65872;BME280;52653;50.080;21.992;2023-03-22T11:55:31;98932.66;;;16.20;46.64
65872;BME280;52653;50.080;21.992;2023-03-22T11:58:41;98929.46;;;16.40;47.11
65872;BME280;52653;50.080;21.992;2023-03-22T12:01:39;98922.50;;;16.57;45.59
65872;BME280;52653;50.080;21.992;2023-03-22T12:04:32;98923.88;;;16.63;45.28
65872;BME280;52653;50.080;21.992;2023-03-22T12:07:28;98921.89;;;16.69;46.80
65872;BME280;52653;50.080;21.992;2023-03-22T12:10:27;98920.66;;;16.83;46.52
65872;BME280;52653;50.080;21.992;2023-03-22T12:13:25;98922.64;;;16.83;46.22
65872;BME280;52653;50.080;21.992;2023-03-22T12:16:23;98915.04;;;16.67;44.97
65872;BME280;52653;50.080;21.992;2023-03-22T12:19:32;98915.42;;;16.57;45.39
65872;BME280;52653;50.080;21.992;2023-03-22T12:22:30;98910.33;;;16.56;44.46
65872;BME280;52653;50.080;21.992;2023-03-22T12:25:15;98910.45;;;16.47;44.08
65872;BME280;52653;50.080;21.992;2023-03-22T12:27:58;98909.31;;;16.44;45.04
65872;BME280;52653;50.080;21.992;2023-03-22T12:30:52;98910.95;;;16.53;45.37
65872;BME280;52653;50.080;21.992;2023-03-22T12:33:50;98906.17;;;16.67;46.54
65872;BME280;52653;50.080;21.992;2023-03-22T12:36:47;98907.97;;;16.86;45.44
65872;BME280;52653;50.080;21.992;2023-03-22T12:39:47;98907.05;;;16.83;44.26
65872;BME280;52653;50.080;21.992;2023-03-22T12:42:39;98905.11;;;16.83;45.60
65872;BME280;52653;50.080;21.992;2023-03-22T12:45:44;98896.11;;;16.86;44.86
65872;BME280;52653;50.080;21.992;2023-03-22T12:48:44;98897.12;;;16.87;44.41
65872;BME280;52653;50.080;21.992;2023-03-22T12:51:18;98891.16;;;16.90;45.01
65872;BME280;52653;50.080;21.992;2023-03-22T12:53:53;98886.05;;;17.03;44.80
65872;BME280;52653;50.080;21.992;2023-03-22T12:56:32;98886.30;;;17.15;44.62
65872;BME280;52653;50.080;21.992;2023-03-22T12:59:16;98891.40;;;17.25;44.44
65872;BME280;52653;50.080;21.992;2023-03-22T13:01:55;98889.60;;;17.34;44.45
65872;BME280;52653;50.080;21.992;2023-03-22T13:04:50;98890.19;;;17.42;44.18
65872;BME280;52653;50.080;21.992;2023-03-22T13:07:38;98885.61;;;17.45;43.83
65872;BME280;52653;50.080;21.992;2023-03-22T13:13:46;98879.44;;;17.57;45.77
65872;BME280;52653;50.080;21.992;2023-03-22T13:16:24;98878.73;;;17.71;44.50
65872;BME280;52653;50.080;21.992;2023-03-22T13:19:28;98877.77;;;17.51;43.53
65872;BME280;52653;50.080;21.992;2023-03-22T13:22:27;98876.48;;;17.39;44.85
65872;BME280;52653;50.080;21.992;2023-03-22T13:25:28;98864.84;;;17.37;45.23
65872;BME280;52653;50.080;21.992;2023-03-22T13:28:21;98858.48;;;17.36;45.31
65872;BME280;52653;50.080;21.992;2023-03-22T13:31:00;98850.04;;;17.40;45.67
65872;BME280;52653;50.080;21.992;2023-03-22T13:33:34;98849.13;;;17.44;46.06
65872;BME280;52653;50.080;21.992;2023-03-22T13:36:24;98848.50;;;17.34;44.25
65872;BME280;52653;50.080;21.992;2023-03-22T13:39:13;98844.44;;;17.12;44.85
65872;BME280;52653;50.080;21.992;2023-03-22T13:42:16;98838.73;;;17.08;46.18
65872;BME280;52653;50.080;21.992;2023-03-22T13:44:54;98832.14;;;17.09;45.05
65872;BME280;52653;50.080;21.992;2023-03-22T13:47:42;98827.00;;;17.13;45.56
65872;BME280;52653;50.080;21.992;2023-03-22T13:50:29;98826.02;;;17.16;45.52
65872;BME280;52653;50.080;21.992;2023-03-22T13:53:28;98824.64;;;17.15;45.33
65872;BME280;52653;50.080;21.992;2023-03-22T13:56:33;98824.42;;;17.20;45.97
65872;BME280;52653;50.080;21.992;2023-03-22T13:59:07;98822.09;;;17.25;45.90
65872;BME280;52653;50.080;21.992;2023-03-22T14:01:46;98823.02;;;17.32;46.60
65872;BME280;52653;50.080;21.992;2023-03-22T14:04:35;98820.94;;;17.40;46.76
65872;BME280;52653;50.080;21.992;2023-03-22T14:07:20;98816.72;;;17.47;47.01
65872;BME280;52653;50.080;21.992;2023-03-22T14:09:57;98814.55;;;17.45;46.81
65872;BME280;52653;50.080;21.992;2023-03-22T14:12:50;98809.97;;;17.39;46.10
65872;BME280;52653;50.080;21.992;2023-03-22T14:15:47;98805.23;;;17.34;46.31
65872;BME280;52653;50.080;21.992;2023-03-22T14:18:27;98804.92;;;17.29;46.38
65872;BME280;52653;50.080;21.992;2023-03-22T14:21:22;98804.09;;;17.28;46.19
65872;BME280;52653;50.080;21.992;2023-03-22T14:24:18;98801.68;;;17.30;46.71
65872;BME280;52653;50.080;21.992;2023-03-22T14:27:07;98799.19;;;17.34;46.94
65872;BME280;52653;50.080;21.992;2023-03-22T14:29:45;98799.92;;;17.38;46.94
65872;BME280;52653;50.080;21.992;2023-03-22T14:32:25;98796.27;;;17.45;46.48
65872;BME280;52653;50.080;21.992;2023-03-22T14:35:22;98793.52;;;17.51;46.75
65872;BME280;52653;50.080;21.992;2023-03-22T14:38:18;98787.92;;;17.58;46.69
65872;BME280;52653;50.080;21.992;2023-03-22T14:41:16;98786.06;;;17.59;46.49
65872;BME280;52653;50.080;21.992;2023-03-22T14:44:11;98785.41;;;17.54;46.17
65872;BME280;52653;50.080;21.992;2023-03-22T14:47:01;98781.55;;;17.36;46.04
65872;BME280;52653;50.080;21.992;2023-03-22T14:49:55;98780.08;;;17.13;46.65
65872;BME280;52653;50.080;21.992;2023-03-22T14:52:41;98780.41;;;16.87;46.49
65872;BME280;52653;50.080;21.992;2023-03-22T14:55:34;98774.58;;;16.63;46.92
65872;BME280;52653;50.080;21.992;2023-03-22T14:58:33;98770.45;;;16.42;48.24
65872;BME280;52653;50.080;21.992;2023-03-22T15:01:14;98764.67;;;16.26;48.88
65872;BME280;52653;50.080;21.992;2023-03-22T15:03:50;98760.27;;;16.07;49.33
65872;BME280;52653;50.080;21.992;2023-03-22T15:06:48;98759.40;;;15.87;49.46
65872;BME280;52653;50.080;21.992;2023-03-22T15:09:41;98752.16;;;15.72;50.23
65872;BME280;52653;50.080;21.992;2023-03-22T15:12:17;98752.83;;;15.64;50.28
65872;BME280;52653;50.080;21.992;2023-03-22T15:15:12;98746.73;;;15.55;50.88
65872;BME280;52653;50.080;21.992;2023-03-22T15:17:48;98740.23;;;15.49;51.44
65872;BME280;52653;50.080;21.992;2023-03-22T15:20:39;98741.08;;;15.50;51.88